sensor_id;sensor_type;location;lat;lon;timestamp;P1;durP1;ratioP1;P2;durP2;ratioP2
20399;SDS011;10359;53.596;22.520;2022-08-21T00:02:19;9.00;;;6.30;;
20399;SDS011;10359;53.596;22.520;2022-08-21T00:04:52;8.73;;;5.93;;
20399;SDS011;10359;53.596;22.520;2022-08-21T00:07:23;7.63;;;6.83;;
20399;SDS011;10359;53.596;22.520;2022-08-21T00:09:53;8.47;;;6.70;;
20399;SDS011;10359;53.596;22.520;2022-08-21T00:12:22;7.77;;;6.83;;
20399;SDS011;10359;53.596;22.520;2022-08-21T00:14:51;9.00;;;6.33;;
20399;SDS011;10359;53.596;22.520;2022-08-21T00:17:23;8.93;;;8.13;;
20399;SDS011;10359;53.596;22.520;2022-08-21T00:19:54;8.93;;;7.93;;
20399;SDS011;10359;53.596;22.520;2022-08-21T00:22:23;10.00;;;7.60;;
20399;SDS011;10359;53.596;22.520;2022-08-21T00:24:52;8.17;;;6.10;;
20399;SDS011;10359;53.596;22.520;2022-08-21T00:27:21;7.93;;;5.97;;
20399;SDS011;10359;53.596;22.520;2022-08-21T00:29:50;8.43;;;6.57;;
20399;SDS011;10359;53.596;22.520;2022-08-21T00:32:20;8.03;;;6.90;;
20399;SDS011;10359;53.596;22.520;2022-08-21T00:34:50;7.67;;;5.67;;
20399;SDS011;10359;53.596;22.520;2022-08-21T00:37:21;8.37;;;5.57;;
20399;SDS011;10359;53.596;22.520;2022-08-21T00:39:50;8.93;;;6.33;;
20399;SDS011;10359;53.596;22.520;2022-08-21T00:42:20;8.20;;;6.43;;
20399;SDS011;10359;53.596;22.520;2022-08-21T00:44:49;6.60;;;6.00;;
20399;SDS011;10359;53.596;22.520;2022-08-21T00:47:18;7.20;;;5.87;;
20399;SDS011;10359;53.596;22.520;2022-08-21T00:49:47;7.03;;;5.77;;
20399;SDS011;10359;53.596;22.520;2022-08-21T00:52:17;5.87;;;5.37;;
20399;SDS011;10359;53.596;22.520;2022-08-21T00:54:52;7.27;;;5.63;;
20399;SDS011;10359;53.596;22.520;2022-08-21T00:57:24;7.70;;;5.20;;
20399;SDS011;10359;53.596;22.520;2022-08-21T00:59:58;8.50;;;5.73;;
20399;SDS011;10359;53.596;22.520;2022-08-21T01:02:33;8.10;;;5.80;;
20399;SDS011;10359;53.596;22.520;2022-08-21T01:05:02;8.80;;;5.73;;
20399;SDS011;10359;53.596;22.520;2022-08-21T01:07:33;6.93;;;5.37;;
20399;SDS011;10359;53.596;22.520;2022-08-21T01:10:03;24.93;;;17.33;;
20399;SDS011;10359;53.596;22.520;2022-08-21T01:12:33;11.97;;;8.43;;
20399;SDS011;10359;53.596;22.520;2022-08-21T01:15:03;12.00;;;9.50;;
20399;SDS011;10359;53.596;22.520;2022-08-21T01:17:34;6.93;;;5.87;;
20399;SDS011;10359;53.596;22.520;2022-08-21T01:20:06;6.10;;;5.47;;
20399;SDS011;10359;53.596;22.520;2022-08-21T01:22:38;9.63;;;6.73;;
20399;SDS011;10359;53.596;22.520;2022-08-21T01:25:11;8.27;;;6.33;;
20399;SDS011;10359;53.596;22.520;2022-08-21T01:27:47;7.17;;;5.60;;
20399;SDS011;10359;53.596;22.520;2022-08-21T01:30:17;8.77;;;6.10;;
20399;SDS011;10359;53.596;22.520;2022-08-21T01:32:49;7.70;;;6.07;;
20399;SDS011;10359;53.596;22.520;2022-08-21T01:35:19;7.60;;;5.77;;
20399;SDS011;10359;53.596;22.520;2022-08-21T01:37:50;7.47;;;5.77;;
20399;SDS011;10359;53.596;22.520;2022-08-21T01:40:19;6.57;;;5.87;;
20399;SDS011;10359;53.596;22.520;2022-08-21T01:42:49;7.90;;;6.17;;
20399;SDS011;10359;53.596;22.520;2022-08-21T01:45:18;6.03;;;5.40;;
20399;SDS011;10359;53.596;22.520;2022-08-21T01:47:47;5.80;;;5.30;;
20399;SDS011;10359;53.596;22.520;2022-08-21T01:50:17;9.93;;;5.60;;
20399;SDS011;10359;53.596;22.520;2022-08-21T01:52:47;7.13;;;5.97;;
20399;SDS011;10359;53.596;22.520;2022-08-21T01:55:18;7.87;;;5.87;;
20399;SDS011;10359;53.596;22.520;2022-08-21T01:57:48;7.70;;;6.27;;
20399;SDS011;10359;53.596;22.520;2022-08-21T02:00:19;7.77;;;6.30;;
20399;SDS011;10359;53.596;22.520;2022-08-21T02:02:50;8.10;;;6.47;;
20399;SDS011;10359;53.596;22.520;2022-08-21T02:05:20;7.70;;;5.73;;
20399;SDS011;10359;53.596;22.520;2022-08-21T02:07:50;8.07;;;5.93;;
20399;SDS011;10359;53.596;22.520;2022-08-21T02:16:04;10.13;;;6.07;;
20399;SDS011;10359;53.596;22.520;2022-08-21T02:18:34;6.80;;;5.67;;
20399;SDS011;10359;53.596;22.520;2022-08-21T02:21:04;7.03;;;5.50;;
20399;SDS011;10359;53.596;22.520;2022-08-21T02:23:33;7.57;;;6.40;;
20399;SDS011;10359;53.596;22.520;2022-08-21T02:26:04;7.27;;;5.67;;
20399;SDS011;10359;53.596;22.520;2022-08-21T02:28:35;10.17;;;6.27;;
20399;SDS011;10359;53.596;22.520;2022-08-21T02:31:07;11.23;;;7.10;;
20399;SDS011;10359;53.596;22.520;2022-08-21T02:33:36;7.17;;;6.37;;
20399;SDS011;10359;53.596;22.520;2022-08-21T02:36:06;9.03;;;5.90;;
20399;SDS011;10359;53.596;22.520;2022-08-21T02:38:37;8.13;;;6.47;;
20399;SDS011;10359;53.596;22.520;2022-08-21T02:41:08;9.07;;;6.20;;
20399;SDS011;10359;53.596;22.520;2022-08-21T02:43:38;10.47;;;6.00;;
20399;SDS011;10359;53.596;22.520;2022-08-21T02:46:10;8.77;;;5.87;;
20399;SDS011;10359;53.596;22.520;2022-08-21T02:48:40;8.57;;;6.30;;
20399;SDS011;10359;53.596;22.520;2022-08-21T02:51:10;9.20;;;6.83;;
20399;SDS011;10359;53.596;22.520;2022-08-21T02:53:41;8.10;;;6.17;;
20399;SDS011;10359;53.596;22.520;2022-08-21T02:56:12;7.47;;;6.73;;
20399;SDS011;10359;53.596;22.520;2022-08-21T02:58:47;7.63;;;6.83;;
20399;SDS011;10359;53.596;22.520;2022-08-21T03:01:21;9.20;;;7.20;;
20399;SDS011;10359;53.596;22.520;2022-08-21T03:03:50;11.00;;;7.97;;
20399;SDS011;10359;53.596;22.520;2022-08-21T03:06:21;7.63;;;6.57;;
20399;SDS011;10359;53.596;22.520;2022-08-21T03:08:51;9.07;;;7.10;;
20399;SDS011;10359;53.596;22.520;2022-08-21T03:11:20;10.33;;;6.87;;
20399;SDS011;10359;53.596;22.520;2022-08-21T03:13:49;7.97;;;7.07;;
20399;SDS011;10359;53.596;22.520;2022-08-21T03:16:18;11.13;;;7.63;;
20399;SDS011;10359;53.596;22.520;2022-08-21T03:18:48;8.70;;;7.30;;
20399;SDS011;10359;53.596;22.520;2022-08-21T03:21:18;10.80;;;7.17;;
20399;SDS011;10359;53.596;22.520;2022-08-21T03:23:47;8.57;;;7.53;;
20399;SDS011;10359;53.596;22.520;2022-08-21T03:26:16;12.83;;;8.43;;
20399;SDS011;10359;53.596;22.520;2022-08-21T03:28:45;8.67;;;7.50;;
20399;SDS011;10359;53.596;22.520;2022-08-21T03:31:14;9.97;;;7.50;;
20399;SDS011;10359;53.596;22.520;2022-08-21T03:33:44;8.73;;;7.50;;
20399;SDS011;10359;53.596;22.520;2022-08-21T03:36:15;12.03;;;7.50;;
20399;SDS011;10359;53.596;22.520;2022-08-21T03:38:44;10.97;;;7.50;;
20399;SDS011;10359;53.596;22.520;2022-08-21T03:41:13;8.50;;;7.60;;
20399;SDS011;10359;53.596;22.520;2022-08-21T03:43:42;9.47;;;8.50;;
20399;SDS011;10359;53.596;22.520;2022-08-21T03:46:11;8.63;;;7.67;;
20399;SDS011;10359;53.596;22.520;2022-08-21T03:48:40;11.07;;;7.73;;
20399;SDS011;10359;53.596;22.520;2022-08-21T03:51:09;9.20;;;7.70;;
20399;SDS011;10359;53.596;22.520;2022-08-21T03:53:40;9.97;;;7.67;;
20399;SDS011;10359;53.596;22.520;2022-08-21T03:56:09;9.77;;;8.33;;
20399;SDS011;10359;53.596;22.520;2022-08-21T03:58:38;9.07;;;7.93;;
20399;SDS011;10359;53.596;22.520;2022-08-21T04:01:07;12.77;;;8.10;;
20399;SDS011;10359;53.596;22.520;2022-08-21T04:03:36;10.93;;;8.63;;
20399;SDS011;10359;53.596;22.520;2022-08-21T04:06:06;11.93;;;7.73;;
20399;SDS011;10359;53.596;22.520;2022-08-21T04:08:36;9.83;;;8.47;;
20399;SDS011;10359;53.596;22.520;2022-08-21T04:11:06;13.90;;;8.07;;
20399;SDS011;10359;53.596;22.520;2022-08-21T04:13:37;11.73;;;8.27;;
20399;SDS011;10359;53.596;22.520;2022-08-21T04:16:10;11.33;;;8.70;;
20399;SDS011;10359;53.596;22.520;2022-08-21T04:18:39;10.53;;;8.10;;
20399;SDS011;10359;53.596;22.520;2022-08-21T04:21:09;11.50;;;7.80;;
20399;SDS011;10359;53.596;22.520;2022-08-21T04:23:40;9.93;;;8.00;;
20399;SDS011;10359;53.596;22.520;2022-08-21T04:26:11;11.50;;;7.90;;
20399;SDS011;10359;53.596;22.520;2022-08-21T04:28:40;9.83;;;8.07;;
20399;SDS011;10359;53.596;22.520;2022-08-21T04:31:09;10.07;;;7.60;;
20399;SDS011;10359;53.596;22.520;2022-08-21T04:33:38;8.20;;;7.00;;
20399;SDS011;10359;53.596;22.520;2022-08-21T04:36:08;8.50;;;7.60;;
20399;SDS011;10359;53.596;22.520;2022-08-21T04:38:37;10.37;;;7.50;;
20399;SDS011;10359;53.596;22.520;2022-08-21T04:41:11;8.63;;;7.07;;
20399;SDS011;10359;53.596;22.520;2022-08-21T04:43:40;12.17;;;7.53;;
20399;SDS011;10359;53.596;22.520;2022-08-21T04:46:09;11.23;;;8.03;;
20399;SDS011;10359;53.596;22.520;2022-08-21T04:48:39;8.67;;;7.43;;
20399;SDS011;10359;53.596;22.520;2022-08-21T04:51:10;9.13;;;7.67;;
20399;SDS011;10359;53.596;22.520;2022-08-21T04:53:43;10.17;;;7.27;;
20399;SDS011;10359;53.596;22.520;2022-08-21T04:56:20;10.77;;;7.50;;
20399;SDS011;10359;53.596;22.520;2022-08-21T04:58:50;12.73;;;7.40;;
20399;SDS011;10359;53.596;22.520;2022-08-21T05:01:23;13.13;;;7.93;;
20399;SDS011;10359;53.596;22.520;2022-08-21T05:03:56;9.90;;;8.23;;
20399;SDS011;10359;53.596;22.520;2022-08-21T05:06:27;8.57;;;7.10;;
20399;SDS011;10359;53.596;22.520;2022-08-21T05:08:58;13.07;;;7.67;;
20399;SDS011;10359;53.596;22.520;2022-08-21T05:11:29;9.83;;;7.13;;
20399;SDS011;10359;53.596;22.520;2022-08-21T05:13:59;8.90;;;7.30;;
20399;SDS011;10359;53.596;22.520;2022-08-21T05:16:28;9.80;;;8.70;;
20399;SDS011;10359;53.596;22.520;2022-08-21T05:19:03;10.33;;;7.90;;
20399;SDS011;10359;53.596;22.520;2022-08-21T05:21:32;12.77;;;8.23;;
20399;SDS011;10359;53.596;22.520;2022-08-21T05:24:02;10.70;;;8.57;;
20399;SDS011;10359;53.596;22.520;2022-08-21T05:26:33;10.83;;;7.87;;
20399;SDS011;10359;53.596;22.520;2022-08-21T05:29:12;11.10;;;7.47;;
20399;SDS011;10359;53.596;22.520;2022-08-21T05:31:43;13.37;;;8.70;;
20399;SDS011;10359;53.596;22.520;2022-08-21T05:34:13;11.73;;;8.10;;
20399;SDS011;10359;53.596;22.520;2022-08-21T05:36:45;9.80;;;8.30;;
20399;SDS011;10359;53.596;22.520;2022-08-21T05:39:15;9.03;;;7.53;;
20399;SDS011;10359;53.596;22.520;2022-08-21T05:41:45;8.63;;;7.43;;
20399;SDS011;10359;53.596;22.520;2022-08-21T05:44:14;10.13;;;8.10;;
20399;SDS011;10359;53.596;22.520;2022-08-21T05:46:45;12.50;;;7.90;;
20399;SDS011;10359;53.596;22.520;2022-08-21T05:49:16;11.07;;;7.83;;
20399;SDS011;10359;53.596;22.520;2022-08-21T05:51:45;12.27;;;8.40;;
20399;SDS011;10359;53.596;22.520;2022-08-21T05:54:14;11.00;;;8.17;;
20399;SDS011;10359;53.596;22.520;2022-08-21T05:56:44;9.43;;;8.00;;
20399;SDS011;10359;53.596;22.520;2022-08-21T05:59:13;10.23;;;7.90;;
20399;SDS011;10359;53.596;22.520;2022-08-21T06:01:42;11.53;;;8.03;;
20399;SDS011;10359;53.596;22.520;2022-08-21T06:04:12;9.97;;;7.60;;
20399;SDS011;10359;53.596;22.520;2022-08-21T06:06:41;10.00;;;7.73;;
20399;SDS011;10359;53.596;22.520;2022-08-21T06:09:10;9.53;;;7.60;;
20399;SDS011;10359;53.596;22.520;2022-08-21T06:11:39;9.50;;;8.13;;
20399;SDS011;10359;53.596;22.520;2022-08-21T06:14:09;11.50;;;7.90;;
20399;SDS011;10359;53.596;22.520;2022-08-21T06:16:41;9.03;;;7.90;;
20399;SDS011;10359;53.596;22.520;2022-08-21T06:19:10;10.93;;;7.97;;
20399;SDS011;10359;53.596;22.520;2022-08-21T06:21:40;11.67;;;7.77;;
20399;SDS011;10359;53.596;22.520;2022-08-21T06:24:09;9.40;;;7.97;;
20399;SDS011;10359;53.596;22.520;2022-08-21T06:26:38;11.40;;;8.23;;
20399;SDS011;10359;53.596;22.520;2022-08-21T06:29:06;10.73;;;8.17;;
20399;SDS011;10359;53.596;22.520;2022-08-21T06:31:38;9.70;;;8.67;;
20399;SDS011;10359;53.596;22.520;2022-08-21T06:34:08;9.93;;;7.93;;
20399;SDS011;10359;53.596;22.520;2022-08-21T06:36:37;11.50;;;7.67;;
20399;SDS011;10359;53.596;22.520;2022-08-21T06:39:06;9.67;;;7.83;;
20399;SDS011;10359;53.596;22.520;2022-08-21T06:41:50;10.00;;;8.00;;
20399;SDS011;10359;53.596;22.520;2022-08-21T06:44:19;8.67;;;6.67;;
20399;SDS011;10359;53.596;22.520;2022-08-21T06:46:50;9.83;;;7.67;;
20399;SDS011;10359;53.596;22.520;2022-08-21T06:49:19;8.77;;;6.73;;
20399;SDS011;10359;53.596;22.520;2022-08-21T06:51:48;11.57;;;7.83;;
20399;SDS011;10359;53.596;22.520;2022-08-21T06:54:17;10.13;;;7.63;;
20399;SDS011;10359;53.596;22.520;2022-08-21T06:56:46;9.87;;;8.10;;
20399;SDS011;10359;53.596;22.520;2022-08-21T06:59:15;10.07;;;7.43;;
20399;SDS011;10359;53.596;22.520;2022-08-21T07:01:44;7.67;;;6.87;;
20399;SDS011;10359;53.596;22.520;2022-08-21T07:04:14;8.90;;;6.87;;
20399;SDS011;10359;53.596;22.520;2022-08-21T07:06:43;7.50;;;6.47;;
20399;SDS011;10359;53.596;22.520;2022-08-21T07:09:12;9.57;;;7.47;;
20399;SDS011;10359;53.596;22.520;2022-08-21T07:11:41;8.77;;;7.27;;
20399;SDS011;10359;53.596;22.520;2022-08-21T07:14:13;7.50;;;6.80;;
20399;SDS011;10359;53.596;22.520;2022-08-21T07:16:46;8.33;;;6.30;;
20399;SDS011;10359;53.596;22.520;2022-08-21T07:19:16;7.87;;;6.07;;
20399;SDS011;10359;53.596;22.520;2022-08-21T07:21:46;8.57;;;6.53;;
20399;SDS011;10359;53.596;22.520;2022-08-21T07:24:15;7.50;;;6.80;;
20399;SDS011;10359;53.596;22.520;2022-08-21T07:26:44;7.50;;;6.40;;
20399;SDS011;10359;53.596;22.520;2022-08-21T07:29:13;7.17;;;6.10;;
20399;SDS011;10359;53.596;22.520;2022-08-21T07:31:42;8.37;;;6.70;;
20399;SDS011;10359;53.596;22.520;2022-08-21T07:34:11;7.17;;;5.97;;
20399;SDS011;10359;53.596;22.520;2022-08-21T07:36:41;7.03;;;6.23;;
20399;SDS011;10359;53.596;22.520;2022-08-21T07:39:11;7.03;;;5.77;;
20399;SDS011;10359;53.596;22.520;2022-08-21T07:41:40;5.90;;;5.30;;
20399;SDS011;10359;53.596;22.520;2022-08-21T07:44:11;7.00;;;6.30;;
20399;SDS011;10359;53.596;22.520;2022-08-21T07:46:40;6.93;;;6.10;;
20399;SDS011;10359;53.596;22.520;2022-08-21T07:49:09;6.93;;;5.27;;
20399;SDS011;10359;53.596;22.520;2022-08-21T07:51:37;10.27;;;5.80;;
20399;SDS011;10359;53.596;22.520;2022-08-21T07:54:08;6.00;;;5.10;;
20399;SDS011;10359;53.596;22.520;2022-08-21T07:56:42;7.07;;;5.47;;
20399;SDS011;10359;53.596;22.520;2022-08-21T07:59:12;6.63;;;5.43;;
20399;SDS011;10359;53.596;22.520;2022-08-21T08:01:42;4.77;;;4.27;;
20399;SDS011;10359;53.596;22.520;2022-08-21T08:04:11;8.00;;;5.60;;
20399;SDS011;10359;53.596;22.520;2022-08-21T08:06:41;6.57;;;5.20;;
20399;SDS011;10359;53.596;22.520;2022-08-21T08:09:11;5.73;;;5.00;;
20399;SDS011;10359;53.596;22.520;2022-08-21T08:11:42;5.33;;;4.83;;
20399;SDS011;10359;53.596;22.520;2022-08-21T08:14:11;7.27;;;4.83;;
20399;SDS011;10359;53.596;22.520;2022-08-21T08:16:40;6.70;;;5.10;;
20399;SDS011;10359;53.596;22.520;2022-08-21T08:19:09;6.07;;;4.93;;
20399;SDS011;10359;53.596;22.520;2022-08-21T08:21:38;6.13;;;4.63;;
20399;SDS011;10359;53.596;22.520;2022-08-21T08:24:07;5.50;;;4.93;;
20399;SDS011;10359;53.596;22.520;2022-08-21T08:26:46;5.43;;;4.27;;
20399;SDS011;10359;53.596;22.520;2022-08-21T08:29:19;5.25;;;4.20;;
20399;SDS011;10359;53.596;22.520;2022-08-21T08:31:49;6.10;;;4.73;;
20399;SDS011;10359;53.596;22.520;2022-08-21T08:34:18;4.73;;;4.33;;
20399;SDS011;10359;53.596;22.520;2022-08-21T08:36:51;6.78;;;4.60;;
20399;SDS011;10359;53.596;22.520;2022-08-21T08:39:23;5.00;;;4.53;;
20399;SDS011;10359;53.596;22.520;2022-08-21T08:41:58;4.73;;;4.30;;
20399;SDS011;10359;53.596;22.520;2022-08-21T08:44:55;5.00;;;4.35;;
20399;SDS011;10359;53.596;22.520;2022-08-21T08:47:28;5.18;;;4.07;;
20399;SDS011;10359;53.596;22.520;2022-08-21T08:50:01;4.55;;;4.15;;
20399;SDS011;10359;53.596;22.520;2022-08-21T08:52:33;4.80;;;4.07;;
20399;SDS011;10359;53.596;22.520;2022-08-21T08:55:04;6.97;;;4.40;;
20399;SDS011;10359;53.596;22.520;2022-08-21T08:57:37;5.13;;;4.22;;
20399;SDS011;10359;53.596;22.520;2022-08-21T09:00:08;4.75;;;4.20;;
20399;SDS011;10359;53.596;22.520;2022-08-21T09:02:43;5.45;;;4.13;;
20399;SDS011;10359;53.596;22.520;2022-08-21T09:05:17;4.18;;;3.88;;
20399;SDS011;10359;53.596;22.520;2022-08-21T09:07:53;5.00;;;4.00;;
20399;SDS011;10359;53.596;22.520;2022-08-21T09:10:50;5.43;;;4.10;;
20399;SDS011;10359;53.596;22.520;2022-08-21T09:13:29;4.93;;;4.47;;
20399;SDS011;10359;53.596;22.520;2022-08-21T09:16:10;4.35;;;3.90;;
20399;SDS011;10359;53.596;22.520;2022-08-21T09:18:48;5.28;;;4.78;;
20399;SDS011;10359;53.596;22.520;2022-08-21T09:21:28;7.72;;;4.85;;
20399;SDS011;10359;53.596;22.520;2022-08-21T09:24:08;4.57;;;3.95;;
20399;SDS011;10359;53.596;22.520;2022-08-21T09:26:50;4.88;;;4.00;;
20399;SDS011;10359;53.596;22.520;2022-08-21T09:29:26;4.22;;;3.90;;
20399;SDS011;10359;53.596;22.520;2022-08-21T09:31:59;6.25;;;4.45;;
20399;SDS011;10359;53.596;22.520;2022-08-21T09:34:29;6.35;;;4.43;;
20399;SDS011;10359;53.596;22.520;2022-08-21T09:36:59;4.35;;;3.95;;
20399;SDS011;10359;53.596;22.520;2022-08-21T09:39:32;4.60;;;4.20;;
20399;SDS011;10359;53.596;22.520;2022-08-21T09:42:21;5.22;;;4.10;;
20399;SDS011;10359;53.596;22.520;2022-08-21T09:45:04;6.55;;;4.53;;
20399;SDS011;10359;53.596;22.520;2022-08-21T09:47:35;6.20;;;4.15;;
20399;SDS011;10359;53.596;22.520;2022-08-21T09:50:09;7.40;;;4.10;;
20399;SDS011;10359;53.596;22.520;2022-08-21T09:52:44;6.40;;;4.22;;
20399;SDS011;10359;53.596;22.520;2022-08-21T09:55:23;4.30;;;3.90;;
20399;SDS011;10359;53.596;22.520;2022-08-21T09:58:16;4.05;;;3.65;;
20399;SDS011;10359;53.596;22.520;2022-08-21T10:00:56;5.63;;;4.00;;
20399;SDS011;10359;53.596;22.520;2022-08-21T10:03:26;6.20;;;3.90;;
20399;SDS011;10359;53.596;22.520;2022-08-21T10:05:57;5.45;;;4.10;;
20399;SDS011;10359;53.596;22.520;2022-08-21T10:08:28;4.78;;;3.70;;
20399;SDS011;10359;53.596;22.520;2022-08-21T10:11:01;5.90;;;4.57;;
20399;SDS011;10359;53.596;22.520;2022-08-21T10:13:36;8.63;;;4.15;;
20399;SDS011;10359;53.596;22.520;2022-08-21T10:16:18;4.25;;;3.30;;
20399;SDS011;10359;53.596;22.520;2022-08-21T10:18:56;4.07;;;3.63;;
20399;SDS011;10359;53.596;22.520;2022-08-21T10:21:35;4.30;;;3.40;;
20399;SDS011;10359;53.596;22.520;2022-08-21T10:24:16;4.40;;;3.53;;
20399;SDS011;10359;53.596;22.520;2022-08-21T10:27:00;3.70;;;3.38;;
20399;SDS011;10359;53.596;22.520;2022-08-21T10:29:39;4.25;;;3.40;;
20399;SDS011;10359;53.596;22.520;2022-08-21T10:32:21;4.72;;;3.22;;
20399;SDS011;10359;53.596;22.520;2022-08-21T10:35:04;3.90;;;3.60;;
20399;SDS011;10359;53.596;22.520;2022-08-21T10:37:46;3.03;;;2.83;;
20399;SDS011;10359;53.596;22.520;2022-08-21T10:40:27;4.40;;;3.50;;
20399;SDS011;10359;53.596;22.520;2022-08-21T10:43:04;4.18;;;3.22;;
20399;SDS011;10359;53.596;22.520;2022-08-21T10:45:49;3.92;;;3.55;;
20399;SDS011;10359;53.596;22.520;2022-08-21T10:48:27;4.15;;;3.33;;
20399;SDS011;10359;53.596;22.520;2022-08-21T10:51:04;4.57;;;3.50;;
20399;SDS011;10359;53.596;22.520;2022-08-21T10:53:42;5.53;;;3.53;;
20399;SDS011;10359;53.596;22.520;2022-08-21T10:56:20;4.18;;;3.20;;
20399;SDS011;10359;53.596;22.520;2022-08-21T10:59:05;3.78;;;3.35;;
20399;SDS011;10359;53.596;22.520;2022-08-21T11:01:44;4.40;;;3.58;;
20399;SDS011;10359;53.596;22.520;2022-08-21T11:04:21;9.32;;;3.78;;
20399;SDS011;10359;53.596;22.520;2022-08-21T11:07:16;3.85;;;3.50;;
20399;SDS011;10359;53.596;22.520;2022-08-21T11:09:50;4.50;;;3.30;;
20399;SDS011;10359;53.596;22.520;2022-08-21T11:12:23;4.78;;;3.80;;
20399;SDS011;10359;53.596;22.520;2022-08-21T11:14:56;7.47;;;3.83;;
20399;SDS011;10359;53.596;22.520;2022-08-21T11:17:30;3.97;;;3.60;;
20399;SDS011;10359;53.596;22.520;2022-08-21T11:20:08;4.63;;;3.42;;
20399;SDS011;10359;53.596;22.520;2022-08-21T11:22:42;5.43;;;3.97;;
20399;SDS011;10359;53.596;22.520;2022-08-21T11:25:22;4.22;;;3.83;;
20399;SDS011;10359;53.596;22.520;2022-08-21T11:28:03;4.00;;;3.45;;
20399;SDS011;10359;53.596;22.520;2022-08-21T11:30:43;4.00;;;3.58;;
20399;SDS011;10359;53.596;22.520;2022-08-21T11:33:27;4.40;;;3.25;;
20399;SDS011;10359;53.596;22.520;2022-08-21T11:36:13;3.72;;;3.30;;
20399;SDS011;10359;53.596;22.520;2022-08-21T11:38:50;4.35;;;3.97;;
20399;SDS011;10359;53.596;22.520;2022-08-21T11:41:29;4.03;;;3.47;;
20399;SDS011;10359;53.596;22.520;2022-08-21T11:44:02;5.38;;;3.65;;
20399;SDS011;10359;53.596;22.520;2022-08-21T11:46:40;6.53;;;3.70;;
20399;SDS011;10359;53.596;22.520;2022-08-21T11:49:19;4.75;;;3.80;;
20399;SDS011;10359;53.596;22.520;2022-08-21T11:52:02;7.88;;;3.53;;
20399;SDS011;10359;53.596;22.520;2022-08-21T11:54:39;5.13;;;3.78;;
20399;SDS011;10359;53.596;22.520;2022-08-21T11:57:14;3.88;;;3.58;;
20399;SDS011;10359;53.596;22.520;2022-08-21T11:59:51;4.03;;;3.70;;
20399;SDS011;10359;53.596;22.520;2022-08-21T12:02:28;4.18;;;3.78;;
20399;SDS011;10359;53.596;22.520;2022-08-21T12:05:00;5.20;;;3.65;;
20399;SDS011;10359;53.596;22.520;2022-08-21T12:07:37;4.15;;;3.85;;
20399;SDS011;10359;53.596;22.520;2022-08-21T12:10:09;4.20;;;3.80;;
20399;SDS011;10359;53.596;22.520;2022-08-21T12:12:41;4.50;;;4.00;;
20399;SDS011;10359;53.596;22.520;2022-08-21T12:15:14;5.53;;;3.70;;
20399;SDS011;10359;53.596;22.520;2022-08-21T12:17:52;4.50;;;4.10;;
20399;SDS011;10359;53.596;22.520;2022-08-21T12:23:23;6.60;;;3.97;;
20399;SDS011;10359;53.596;22.520;2022-08-21T12:26:02;4.43;;;4.03;;
20399;SDS011;10359;53.596;22.520;2022-08-21T12:28:46;4.97;;;4.03;;
20399;SDS011;10359;53.596;22.520;2022-08-21T12:31:20;6.30;;;4.32;;
20399;SDS011;10359;53.596;22.520;2022-08-21T12:33:52;5.40;;;4.45;;
20399;SDS011;10359;53.596;22.520;2022-08-21T12:36:26;5.03;;;3.53;;
20399;SDS011;10359;53.596;22.520;2022-08-21T12:39:10;6.40;;;4.15;;
20399;SDS011;10359;53.596;22.520;2022-08-21T12:41:43;5.07;;;4.15;;
20399;SDS011;10359;53.596;22.520;2022-08-21T12:44:31;5.53;;;4.32;;
20399;SDS011;10359;53.596;22.520;2022-08-21T13:05:26;5.65;;;4.80;;
20399;SDS011;10359;53.596;22.520;2022-08-21T13:08:11;5.30;;;4.32;;
20399;SDS011;10359;53.596;22.520;2022-08-21T13:10:41;4.45;;;4.05;;
20399;SDS011;10359;53.596;22.520;2022-08-21T13:13:16;6.03;;;4.72;;
20399;SDS011;10359;53.596;22.520;2022-08-21T13:15:56;6.90;;;4.35;;
20399;SDS011;10359;53.596;22.520;2022-08-21T13:18:27;5.32;;;4.38;;
20399;SDS011;10359;53.596;22.520;2022-08-21T13:21:12;5.25;;;4.50;;
20399;SDS011;10359;53.596;22.520;2022-08-21T13:35:15;4.85;;;4.35;;
20399;SDS011;10359;53.596;22.520;2022-08-21T13:38:00;4.78;;;4.28;;
20399;SDS011;10359;53.596;22.520;2022-08-21T13:40:30;5.70;;;4.30;;
20399;SDS011;10359;53.596;22.520;2022-08-21T14:00:48;4.80;;;4.38;;
20399;SDS011;10359;53.596;22.520;2022-08-21T14:03:34;4.60;;;4.20;;
20399;SDS011;10359;53.596;22.520;2022-08-21T14:06:27;5.15;;;4.35;;
20399;SDS011;10359;53.596;22.520;2022-08-21T14:09:23;4.78;;;4.30;;
20399;SDS011;10359;53.596;22.520;2022-08-21T14:12:17;5.53;;;4.40;;
20399;SDS011;10359;53.596;22.520;2022-08-21T14:15:18;5.00;;;4.45;;
20399;SDS011;10359;53.596;22.520;2022-08-21T14:18:17;5.88;;;4.60;;
20399;SDS011;10359;53.596;22.520;2022-08-21T14:21:08;6.10;;;4.70;;
20399;SDS011;10359;53.596;22.520;2022-08-21T14:24:04;4.95;;;4.38;;
20399;SDS011;10359;53.596;22.520;2022-08-21T14:26:56;4.45;;;4.00;;
20399;SDS011;10359;53.596;22.520;2022-08-21T14:29:50;5.60;;;4.13;;
20399;SDS011;10359;53.596;22.520;2022-08-21T14:32:47;5.22;;;4.25;;
20399;SDS011;10359;53.596;22.520;2022-08-21T14:35:38;4.85;;;4.35;;
20399;SDS011;10359;53.596;22.520;2022-08-21T14:38:29;5.00;;;4.50;;
20399;SDS011;10359;53.596;22.520;2022-08-21T14:41:20;6.68;;;4.50;;
20399;SDS011;10359;53.596;22.520;2022-08-21T14:44:11;5.43;;;4.15;;
20399;SDS011;10359;53.596;22.520;2022-08-21T14:47:03;4.78;;;4.13;;
20399;SDS011;10359;53.596;22.520;2022-08-21T14:49:53;5.22;;;4.03;;
20399;SDS011;10359;53.596;22.520;2022-08-21T14:52:44;5.10;;;4.60;;
20399;SDS011;10359;53.596;22.520;2022-08-21T14:55:35;6.53;;;4.78;;
20399;SDS011;10359;53.596;22.520;2022-08-21T14:58:40;7.47;;;4.45;;
20399;SDS011;10359;53.596;22.520;2022-08-21T15:01:31;5.85;;;4.80;;
20399;SDS011;10359;53.596;22.520;2022-08-21T15:04:23;7.07;;;4.53;;
20399;SDS011;10359;53.596;22.520;2022-08-21T15:07:12;7.43;;;4.82;;
20399;SDS011;10359;53.596;22.520;2022-08-21T15:10:03;6.30;;;4.28;;
20399;SDS011;10359;53.596;22.520;2022-08-21T15:12:55;5.30;;;4.80;;
20399;SDS011;10359;53.596;22.520;2022-08-21T15:15:45;5.78;;;4.53;;
20399;SDS011;10359;53.596;22.520;2022-08-21T15:18:37;5.53;;;4.93;;
20399;SDS011;10359;53.596;22.520;2022-08-21T15:21:26;5.63;;;4.03;;
20399;SDS011;10359;53.596;22.520;2022-08-21T15:24:15;5.50;;;4.30;;
20399;SDS011;10359;53.596;22.520;2022-08-21T15:27:06;4.97;;;4.43;;
20399;SDS011;10359;53.596;22.520;2022-08-21T15:29:58;4.85;;;4.35;;
20399;SDS011;10359;53.596;22.520;2022-08-21T15:32:47;4.95;;;4.40;;
20399;SDS011;10359;53.596;22.520;2022-08-21T15:35:36;4.80;;;4.40;;
20399;SDS011;10359;53.596;22.520;2022-08-21T15:38:27;6.13;;;5.03;;
20399;SDS011;10359;53.596;22.520;2022-08-21T15:41:16;4.90;;;4.40;;
20399;SDS011;10359;53.596;22.520;2022-08-21T15:44:08;6.47;;;4.80;;
20399;SDS011;10359;53.596;22.520;2022-08-21T15:46:59;6.27;;;4.30;;
20399;SDS011;10359;53.596;22.520;2022-08-21T15:49:49;5.25;;;4.57;;
20399;SDS011;10359;53.596;22.520;2022-08-21T15:52:39;5.72;;;4.60;;
20399;SDS011;10359;53.596;22.520;2022-08-21T15:55:28;5.63;;;4.70;;
20399;SDS011;10359;53.596;22.520;2022-08-21T15:58:18;5.00;;;4.50;;
20399;SDS011;10359;53.596;22.520;2022-08-21T16:01:09;5.57;;;4.60;;
20399;SDS011;10359;53.596;22.520;2022-08-21T16:03:58;6.97;;;4.80;;
20399;SDS011;10359;53.596;22.520;2022-08-21T16:06:48;6.35;;;4.90;;
20399;SDS011;10359;53.596;22.520;2022-08-21T16:09:42;7.70;;;4.78;;
20399;SDS011;10359;53.596;22.520;2022-08-21T16:12:33;19.98;;;16.05;;
20399;SDS011;10359;53.596;22.520;2022-08-21T16:15:26;6.93;;;5.47;;
20399;SDS011;10359;53.596;22.520;2022-08-21T16:18:17;6.57;;;5.90;;